sensor_id;sensor_type;location;lat;lon;timestamp;temperature;humidity
4725;DHT22;2376;53.544;10.226;2023-07-31T00:01:05;15.90;99.90
4725;DHT22;2376;53.544;10.226;2023-07-31T00:03:32;15.90;99.90
4725;DHT22;2376;53.544;10.226;2023-07-31T00:05:59;15.90;99.90
4725;DHT22;2376;53.544;10.226;2023-07-31T00:08:25;15.90;99.90
4725;DHT22;2376;53.544;10.226;2023-07-31T00:10:54;15.90;99.90
4725;DHT22;2376;53.544;10.226;2023-07-31T00:13:20;16.00;99.90
4725;DHT22;2376;53.544;10.226;2023-07-31T00:15:47;15.90;99.90
4725;DHT22;2376;53.544;10.226;2023-07-31T00:18:14;16.00;99.90
4725;DHT22;2376;53.544;10.226;2023-07-31T00:20:40;16.00;99.90
4725;DHT22;2376;53.544;10.226;2023-07-31T00:23:07;15.90;99.90
4725;DHT22;2376;53.544;10.226;2023-07-31T00:25:34;16.00;99.90
4725;DHT22;2376;53.544;10.226;2023-07-31T00:28:02;15.90;99.90
4725;DHT22;2376;53.544;10.226;2023-07-31T00:30:29;16.00;99.90
4725;DHT22;2376;53.544;10.226;2023-07-31T00:32:55;15.90;99.90
4725;DHT22;2376;53.544;10.226;2023-07-31T00:35:22;16.00;99.90
4725;DHT22;2376;53.544;10.226;2023-07-31T00:37:49;16.00;99.90
4725;DHT22;2376;53.544;10.226;2023-07-31T00:40:15;16.00;99.90
4725;DHT22;2376;53.544;10.226;2023-07-31T00:42:42;15.90;99.90
4725;DHT22;2376;53.544;10.226;2023-07-31T00:45:10;16.00;99.90
4725;DHT22;2376;53.544;10.226;2023-07-31T00:47:37;16.00;99.90
4725;DHT22;2376;53.544;10.226;2023-07-31T00:50:06;16.00;99.90
4725;DHT22;2376;53.544;10.226;2023-07-31T00:52:33;15.90;99.90
4725;DHT22;2376;53.544;10.226;2023-07-31T00:55:00;16.00;99.90
4725;DHT22;2376;53.544;10.226;2023-07-31T00:57:27;16.00;99.90
4725;DHT22;2376;53.544;10.226;2023-07-31T00:59:53;16.00;99.90
4725;DHT22;2376;53.544;10.226;2023-07-31T01:02:22;16.00;99.90
4725;DHT22;2376;53.544;10.226;2023-07-31T01:04:48;16.00;99.90
4725;DHT22;2376;53.544;10.226;2023-07-31T01:07:19;16.00;99.90
4725;DHT22;2376;53.544;10.226;2023-07-31T01:09:52;16.00;99.90
4725;DHT22;2376;53.544;10.226;2023-07-31T01:12:24;16.00;99.90
4725;DHT22;2376;53.544;10.226;2023-07-31T01:14:54;16.00;99.90
4725;DHT22;2376;53.544;10.226;2023-07-31T01:17:29;16.00;99.90
4725;DHT22;2376;53.544;10.226;2023-07-31T01:20:01;16.00;99.90
4725;DHT22;2376;53.544;10.226;2023-07-31T01:22:38;15.90;99.90
4725;DHT22;2376;53.544;10.226;2023-07-31T01:25:15;15.90;99.90
4725;DHT22;2376;53.544;10.226;2023-07-31T01:27:51;15.90;99.90
4725;DHT22;2376;53.544;10.226;2023-07-31T01:30:22;15.90;99.90
4725;DHT22;2376;53.544;10.226;2023-07-31T01:32:52;15.80;99.90
4725;DHT22;2376;53.544;10.226;2023-07-31T01:35:19;15.80;99.90
4725;DHT22;2376;53.544;10.226;2023-07-31T01:37:46;15.80;99.90
4725;DHT22;2376;53.544;10.226;2023-07-31T01:40:13;15.80;99.90
4725;DHT22;2376;53.544;10.226;2023-07-31T01:42:40;15.80;99.90
4725;DHT22;2376;53.544;10.226;2023-07-31T01:45:09;15.80;99.90
4725;DHT22;2376;53.544;10.226;2023-07-31T01:47:36;15.80;99.90
4725;DHT22;2376;53.544;10.226;2023-07-31T01:50:03;15.80;99.90
4725;DHT22;2376;53.544;10.226;2023-07-31T01:52:30;15.80;99.90
4725;DHT22;2376;53.544;10.226;2023-07-31T01:54:56;15.80;99.90
4725;DHT22;2376;53.544;10.226;2023-07-31T01:57:23;15.80;99.90
4725;DHT22;2376;53.544;10.226;2023-07-31T01:59:50;15.80;99.90
4725;DHT22;2376;53.544;10.226;2023-07-31T02:02:19;15.80;99.90
4725;DHT22;2376;53.544;10.226;2023-07-31T02:04:46;15.80;99.90
4725;DHT22;2376;53.544;10.226;2023-07-31T02:07:13;15.80;99.90
4725;DHT22;2376;53.544;10.226;2023-07-31T02:09:40;15.90;99.90
4725;DHT22;2376;53.544;10.226;2023-07-31T02:12:07;15.90;99.90
4725;DHT22;2376;53.544;10.226;2023-07-31T02:14:34;15.90;99.90
4725;DHT22;2376;53.544;10.226;2023-07-31T02:17:01;15.90;99.90
4725;DHT22;2376;53.544;10.226;2023-07-31T02:19:29;15.90;99.90
4725;DHT22;2376;53.544;10.226;2023-07-31T02:21:56;15.80;99.90
4725;DHT22;2376;53.544;10.226;2023-07-31T02:24:23;15.90;99.90
4725;DHT22;2376;53.544;10.226;2023-07-31T02:26:50;15.80;99.90
4725;DHT22;2376;53.544;10.226;2023-07-31T02:29:17;15.80;99.90
4725;DHT22;2376;53.544;10.226;2023-07-31T02:31:43;15.80;99.90
4725;DHT22;2376;53.544;10.226;2023-07-31T02:34:10;15.80;99.90
4725;DHT22;2376;53.544;10.226;2023-07-31T02:36:38;15.90;99.90
4725;DHT22;2376;53.544;10.226;2023-07-31T02:39:05;15.90;99.90
4725;DHT22;2376;53.544;10.226;2023-07-31T02:41:31;15.90;99.90
4725;DHT22;2376;53.544;10.226;2023-07-31T02:43:58;15.90;99.90
4725;DHT22;2376;53.544;10.226;2023-07-31T02:46:25;15.90;99.90
4725;DHT22;2376;53.544;10.226;2023-07-31T02:48:51;15.90;99.90
4725;DHT22;2376;53.544;10.226;2023-07-31T02:51:18;15.90;99.90
4725;DHT22;2376;53.544;10.226;2023-07-31T02:53:48;15.90;99.90
4725;DHT22;2376;53.544;10.226;2023-07-31T02:56:15;15.90;99.90
4725;DHT22;2376;53.544;10.226;2023-07-31T02:58:41;16.00;99.90
4725;DHT22;2376;53.544;10.226;2023-07-31T03:01:08;16.00;99.90
4725;DHT22;2376;53.544;10.226;2023-07-31T03:03:35;16.00;99.90
4725;DHT22;2376;53.544;10.226;2023-07-31T03:06:02;16.00;99.90
4725;DHT22;2376;53.544;10.226;2023-07-31T03:08:28;16.00;99.90
4725;DHT22;2376;53.544;10.226;2023-07-31T03:10:58;16.00;99.90
4725;DHT22;2376;53.544;10.226;2023-07-31T03:13:24;16.00;99.90
4725;DHT22;2376;53.544;10.226;2023-07-31T03:15:51;16.00;99.90
4725;DHT22;2376;53.544;10.226;2023-07-31T03:18:18;16.00;99.90
4725;DHT22;2376;53.544;10.226;2023-07-31T03:20:45;16.00;99.90
4725;DHT22;2376;53.544;10.226;2023-07-31T03:23:11;16.00;99.90
4725;DHT22;2376;53.544;10.226;2023-07-31T03:25:38;16.00;99.90
4725;DHT22;2376;53.544;10.226;2023-07-31T03:28:06;16.00;99.90
4725;DHT22;2376;53.544;10.226;2023-07-31T03:30:36;16.00;99.90
4725;DHT22;2376;53.544;10.226;2023-07-31T03:33:03;16.00;99.90
4725;DHT22;2376;53.544;10.226;2023-07-31T03:35:30;16.00;99.90
4725;DHT22;2376;53.544;10.226;2023-07-31T03:37:57;16.00;99.90
4725;DHT22;2376;53.544;10.226;2023-07-31T03:40:23;16.00;99.90
4725;DHT22;2376;53.544;10.226;2023-07-31T03:42:50;16.00;99.90
4725;DHT22;2376;53.544;10.226;2023-07-31T03:45:18;16.00;99.90
4725;DHT22;2376;53.544;10.226;2023-07-31T03:47:45;16.00;99.90
4725;DHT22;2376;53.544;10.226;2023-07-31T03:50:12;16.00;99.90
4725;DHT22;2376;53.544;10.226;2023-07-31T03:52:41;16.10;99.90
4725;DHT22;2376;53.544;10.226;2023-07-31T03:55:08;16.10;99.90
4725;DHT22;2376;53.544;10.226;2023-07-31T03:57:35;16.10;99.90
4725;DHT22;2376;53.544;10.226;2023-07-31T04:00:01;16.10;99.90
4725;DHT22;2376;53.544;10.226;2023-07-31T04:02:30;16.10;99.90
4725;DHT22;2376;53.544;10.226;2023-07-31T04:04:56;16.10;99.90
4725;DHT22;2376;53.544;10.226;2023-07-31T04:07:23;16.10;99.90
4725;DHT22;2376;53.544;10.226;2023-07-31T04:09:49;16.20;99.90
4725;DHT22;2376;53.544;10.226;2023-07-31T04:12:16;16.20;99.90
4725;DHT22;2376;53.544;10.226;2023-07-31T04:14:43;16.20;99.90
4725;DHT22;2376;53.544;10.226;2023-07-31T04:17:09;16.20;99.90
4725;DHT22;2376;53.544;10.226;2023-07-31T04:19:37;16.20;99.90
4725;DHT22;2376;53.544;10.226;2023-07-31T04:22:04;16.30;99.90
4725;DHT22;2376;53.544;10.226;2023-07-31T04:24:31;16.20;99.90
4725;DHT22;2376;53.544;10.226;2023-07-31T04:26:57;16.20;99.90
4725;DHT22;2376;53.544;10.226;2023-07-31T04:29:24;16.20;99.90
4725;DHT22;2376;53.544;10.226;2023-07-31T04:31:51;16.20;99.90
4725;DHT22;2376;53.544;10.226;2023-07-31T04:34:17;16.20;99.90
4725;DHT22;2376;53.544;10.226;2023-07-31T04:36:45;16.20;99.90
4725;DHT22;2376;53.544;10.226;2023-07-31T04:39:12;16.30;99.90
4725;DHT22;2376;53.544;10.226;2023-07-31T04:41:39;16.30;99.90
4725;DHT22;2376;53.544;10.226;2023-07-31T04:44:05;16.30;99.90
4725;DHT22;2376;53.544;10.226;2023-07-31T04:46:32;16.30;99.90
4725;DHT22;2376;53.544;10.226;2023-07-31T04:48:58;16.30;99.90
4725;DHT22;2376;53.544;10.226;2023-07-31T04:51:25;16.40;99.90
4725;DHT22;2376;53.544;10.226;2023-07-31T04:53:53;16.30;99.90
4725;DHT22;2376;53.544;10.226;2023-07-31T04:56:20;16.40;99.90
4725;DHT22;2376;53.544;10.226;2023-07-31T04:58:46;16.40;99.90
4725;DHT22;2376;53.544;10.226;2023-07-31T05:01:13;16.40;99.90
4725;DHT22;2376;53.544;10.226;2023-07-31T05:03:40;16.40;99.90
4725;DHT22;2376;53.544;10.226;2023-07-31T05:06:06;16.40;99.90
4725;DHT22;2376;53.544;10.226;2023-07-31T05:08:33;16.40;99.90
4725;DHT22;2376;53.544;10.226;2023-07-31T05:11:01;16.40;99.90
4725;DHT22;2376;53.544;10.226;2023-07-31T05:13:28;16.40;99.90
4725;DHT22;2376;53.544;10.226;2023-07-31T05:15:55;16.40;99.90
4725;DHT22;2376;53.544;10.226;2023-07-31T05:18:21;16.40;99.90
4725;DHT22;2376;53.544;10.226;2023-07-31T05:20:48;16.40;99.90
4725;DHT22;2376;53.544;10.226;2023-07-31T05:23:14;16.40;99.90
4725;DHT22;2376;53.544;10.226;2023-07-31T05:25:41;16.40;99.90
4725;DHT22;2376;53.544;10.226;2023-07-31T05:28:09;16.40;99.90
4725;DHT22;2376;53.544;10.226;2023-07-31T05:30:36;16.40;99.90
4725;DHT22;2376;53.544;10.226;2023-07-31T05:33:02;16.40;99.90
4725;DHT22;2376;53.544;10.226;2023-07-31T05:35:29;16.50;99.90
4725;DHT22;2376;53.544;10.226;2023-07-31T05:37:56;16.50;99.90
4725;DHT22;2376;53.544;10.226;2023-07-31T05:40:22;16.50;99.90
4725;DHT22;2376;53.544;10.226;2023-07-31T05:42:49;16.50;99.90
4725;DHT22;2376;53.544;10.226;2023-07-31T05:45:17;16.50;99.90
4725;DHT22;2376;53.544;10.226;2023-07-31T05:47:44;16.50;99.90
4725;DHT22;2376;53.544;10.226;2023-07-31T05:50:10;16.50;99.90
4725;DHT22;2376;53.544;10.226;2023-07-31T05:52:37;16.50;99.90
4725;DHT22;2376;53.544;10.226;2023-07-31T05:55:04;16.50;99.90
4725;DHT22;2376;53.544;10.226;2023-07-31T05:57:31;16.50;99.90
4725;DHT22;2376;53.544;10.226;2023-07-31T05:59:57;16.50;99.90
4725;DHT22;2376;53.544;10.226;2023-07-31T06:02:25;16.50;99.90
4725;DHT22;2376;53.544;10.226;2023-07-31T06:04:52;16.60;99.90
4725;DHT22;2376;53.544;10.226;2023-07-31T06:07:19;16.60;99.90
4725;DHT22;2376;53.544;10.226;2023-07-31T06:09:45;16.60;99.90
4725;DHT22;2376;53.544;10.226;2023-07-31T06:12:12;16.60;99.90
4725;DHT22;2376;53.544;10.226;2023-07-31T06:14:39;16.60;99.90
4725;DHT22;2376;53.544;10.226;2023-07-31T06:17:06;16.60;99.90
4725;DHT22;2376;53.544;10.226;2023-07-31T06:19:34;16.70;99.90
4725;DHT22;2376;53.544;10.226;2023-07-31T06:22:01;16.70;99.90
4725;DHT22;2376;53.544;10.226;2023-07-31T06:24:28;16.70;99.90
4725;DHT22;2376;53.544;10.226;2023-07-31T06:26:55;16.70;99.90
4725;DHT22;2376;53.544;10.226;2023-07-31T06:29:23;16.70;99.90
4725;DHT22;2376;53.544;10.226;2023-07-31T06:31:49;16.70;99.90
4725;DHT22;2376;53.544;10.226;2023-07-31T06:34:17;16.70;99.90
4725;DHT22;2376;53.544;10.226;2023-07-31T06:36:45;16.70;99.90
4725;DHT22;2376;53.544;10.226;2023-07-31T06:39:11;16.70;99.90
4725;DHT22;2376;53.544;10.226;2023-07-31T06:41:38;16.80;99.90
4725;DHT22;2376;53.544;10.226;2023-07-31T06:44:05;16.80;99.90
4725;DHT22;2376;53.544;10.226;2023-07-31T06:46:32;16.80;99.90
4725;DHT22;2376;53.544;10.226;2023-07-31T06:48:58;16.80;99.90
4725;DHT22;2376;53.544;10.226;2023-07-31T06:51:25;16.90;99.90
4725;DHT22;2376;53.544;10.226;2023-07-31T06:53:53;16.90;99.90
4725;DHT22;2376;53.544;10.226;2023-07-31T06:56:20;16.90;99.90
4725;DHT22;2376;53.544;10.226;2023-07-31T06:58:47;16.90;99.90
4725;DHT22;2376;53.544;10.226;2023-07-31T07:01:14;17.00;99.90
4725;DHT22;2376;53.544;10.226;2023-07-31T07:03:40;17.00;99.90
4725;DHT22;2376;53.544;10.226;2023-07-31T07:06:07;17.00;99.90
4725;DHT22;2376;53.544;10.226;2023-07-31T07:08:34;17.10;99.90
4725;DHT22;2376;53.544;10.226;2023-07-31T07:11:02;17.10;99.90
4725;DHT22;2376;53.544;10.226;2023-07-31T07:13:29;17.20;99.90
4725;DHT22;2376;53.544;10.226;2023-07-31T07:15:55;17.20;99.90
4725;DHT22;2376;53.544;10.226;2023-07-31T07:18:22;17.20;99.90
4725;DHT22;2376;53.544;10.226;2023-07-31T07:20:50;17.20;99.90
4725;DHT22;2376;53.544;10.226;2023-07-31T07:23:18;17.20;99.90
4725;DHT22;2376;53.544;10.226;2023-07-31T07:25:45;17.20;99.90
4725;DHT22;2376;53.544;10.226;2023-07-31T07:28:14;17.20;99.90
4725;DHT22;2376;53.544;10.226;2023-07-31T07:30:40;17.20;99.90
4725;DHT22;2376;53.544;10.226;2023-07-31T07:33:07;17.30;99.90
4725;DHT22;2376;53.544;10.226;2023-07-31T07:35:34;17.30;99.90
4725;DHT22;2376;53.544;10.226;2023-07-31T07:38:01;17.30;99.90
4725;DHT22;2376;53.544;10.226;2023-07-31T07:40:28;17.40;99.90
4725;DHT22;2376;53.544;10.226;2023-07-31T07:42:54;17.50;99.90
4725;DHT22;2376;53.544;10.226;2023-07-31T07:45:22;17.50;99.90
4725;DHT22;2376;53.544;10.226;2023-07-31T07:47:49;17.50;99.90
4725;DHT22;2376;53.544;10.226;2023-07-31T07:50:16;17.50;99.90
4725;DHT22;2376;53.544;10.226;2023-07-31T07:52:43;17.50;99.90
4725;DHT22;2376;53.544;10.226;2023-07-31T07:55:09;17.50;99.90
4725;DHT22;2376;53.544;10.226;2023-07-31T07:57:36;17.60;99.90
4725;DHT22;2376;53.544;10.226;2023-07-31T08:00:03;17.60;99.90
4725;DHT22;2376;53.544;10.226;2023-07-31T08:02:31;17.60;99.90
4725;DHT22;2376;53.544;10.226;2023-07-31T08:04:58;17.60;99.90
4725;DHT22;2376;53.544;10.226;2023-07-31T08:07:24;17.60;99.90
4725;DHT22;2376;53.544;10.226;2023-07-31T08:09:51;17.60;99.90
4725;DHT22;2376;53.544;10.226;2023-07-31T08:12:18;17.70;99.90
4725;DHT22;2376;53.544;10.226;2023-07-31T08:14:45;17.70;99.90
4725;DHT22;2376;53.544;10.226;2023-07-31T08:17:12;17.80;99.90
4725;DHT22;2376;53.544;10.226;2023-07-31T08:19:40;17.90;99.90
4725;DHT22;2376;53.544;10.226;2023-07-31T08:22:07;18.00;99.90
4725;DHT22;2376;53.544;10.226;2023-07-31T08:24:33;18.00;99.90
4725;DHT22;2376;53.544;10.226;2023-07-31T08:27:00;18.10;99.90
4725;DHT22;2376;53.544;10.226;2023-07-31T08:29:26;18.10;99.90
4725;DHT22;2376;53.544;10.226;2023-07-31T08:31:53;18.10;99.90
4725;DHT22;2376;53.544;10.226;2023-07-31T08:34:20;18.10;99.90
4725;DHT22;2376;53.544;10.226;2023-07-31T08:36:48;18.10;99.90
4725;DHT22;2376;53.544;10.226;2023-07-31T08:39:14;18.10;99.90
4725;DHT22;2376;53.544;10.226;2023-07-31T08:41:41;18.10;99.90
4725;DHT22;2376;53.544;10.226;2023-07-31T08:44:08;18.10;99.90
4725;DHT22;2376;53.544;10.226;2023-07-31T08:46:35;18.20;99.90
4725;DHT22;2376;53.544;10.226;2023-07-31T08:49:04;18.20;99.90
4725;DHT22;2376;53.544;10.226;2023-07-31T08:51:33;18.30;99.90
4725;DHT22;2376;53.544;10.226;2023-07-31T08:54:01;18.30;99.90
4725;DHT22;2376;53.544;10.226;2023-07-31T08:56:29;18.30;99.90
4725;DHT22;2376;53.544;10.226;2023-07-31T08:58:58;18.30;99.90
4725;DHT22;2376;53.544;10.226;2023-07-31T09:01:26;18.40;99.90
4725;DHT22;2376;53.544;10.226;2023-07-31T09:03:56;18.40;99.90
4725;DHT22;2376;53.544;10.226;2023-07-31T09:06:25;18.50;99.90
4725;DHT22;2376;53.544;10.226;2023-07-31T09:08:53;18.60;99.90
4725;DHT22;2376;53.544;10.226;2023-07-31T09:11:21;18.60;99.90
4725;DHT22;2376;53.544;10.226;2023-07-31T09:13:49;18.70;99.90
4725;DHT22;2376;53.544;10.226;2023-07-31T09:16:16;18.80;99.90
4725;DHT22;2376;53.544;10.226;2023-07-31T09:18:56;18.90;99.90
4725;DHT22;2376;53.544;10.226;2023-07-31T09:21:24;18.90;99.90
4725;DHT22;2376;53.544;10.226;2023-07-31T09:23:51;19.00;99.90
4725;DHT22;2376;53.544;10.226;2023-07-31T09:26:30;19.00;99.90
4725;DHT22;2376;53.544;10.226;2023-07-31T09:28:57;19.10;99.90
4725;DHT22;2376;53.544;10.226;2023-07-31T09:31:39;19.10;99.90
4725;DHT22;2376;53.544;10.226;2023-07-31T09:34:06;19.10;99.90
4725;DHT22;2376;53.544;10.226;2023-07-31T09:36:34;19.20;99.90
4725;DHT22;2376;53.544;10.226;2023-07-31T09:39:09;19.20;99.90
4725;DHT22;2376;53.544;10.226;2023-07-31T09:41:39;19.20;99.90
4725;DHT22;2376;53.544;10.226;2023-07-31T09:44:06;19.20;99.90
4725;DHT22;2376;53.544;10.226;2023-07-31T09:46:35;19.20;99.90
4725;DHT22;2376;53.544;10.226;2023-07-31T09:49:06;19.10;99.90
4725;DHT22;2376;53.544;10.226;2023-07-31T09:51:34;19.10;99.90
4725;DHT22;2376;53.544;10.226;2023-07-31T09:54:10;19.10;99.90
4725;DHT22;2376;53.544;10.226;2023-07-31T09:56:42;19.20;99.90
4725;DHT22;2376;53.544;10.226;2023-07-31T09:59:11;19.20;99.90
4725;DHT22;2376;53.544;10.226;2023-07-31T10:01:38;19.30;99.90
4725;DHT22;2376;53.544;10.226;2023-07-31T10:04:05;19.30;99.90
4725;DHT22;2376;53.544;10.226;2023-07-31T10:06:34;19.40;99.90
4725;DHT22;2376;53.544;10.226;2023-07-31T10:09:02;19.40;99.90
4725;DHT22;2376;53.544;10.226;2023-07-31T10:11:30;19.40;99.90
4725;DHT22;2376;53.544;10.226;2023-07-31T10:14:02;19.40;99.90
4725;DHT22;2376;53.544;10.226;2023-07-31T10:16:30;19.40;99.90
4725;DHT22;2376;53.544;10.226;2023-07-31T10:18:57;19.40;99.90
4725;DHT22;2376;53.544;10.226;2023-07-31T10:21:24;19.30;99.90
4725;DHT22;2376;53.544;10.226;2023-07-31T10:23:51;19.30;99.90
4725;DHT22;2376;53.544;10.226;2023-07-31T10:26:19;19.20;99.90
4725;DHT22;2376;53.544;10.226;2023-07-31T10:28:47;19.30;99.90
4725;DHT22;2376;53.544;10.226;2023-07-31T10:31:16;19.30;99.90
4725;DHT22;2376;53.544;10.226;2023-07-31T10:33:43;19.30;99.90
4725;DHT22;2376;53.544;10.226;2023-07-31T10:36:13;19.30;99.90
4725;DHT22;2376;53.544;10.226;2023-07-31T10:38:42;19.30;99.90
4725;DHT22;2376;53.544;10.226;2023-07-31T10:41:09;19.20;99.90
4725;DHT22;2376;53.544;10.226;2023-07-31T10:43:36;19.10;99.90
4725;DHT22;2376;53.544;10.226;2023-07-31T10:46:06;19.10;99.90
4725;DHT22;2376;53.544;10.226;2023-07-31T10:48:35;19.00;99.90
4725;DHT22;2376;53.544;10.226;2023-07-31T10:51:07;18.90;99.90
4725;DHT22;2376;53.544;10.226;2023-07-31T10:53:35;18.90;99.90
4725;DHT22;2376;53.544;10.226;2023-07-31T10:56:03;18.90;99.90
4725;DHT22;2376;53.544;10.226;2023-07-31T10:58:31;18.80;99.90
4725;DHT22;2376;53.544;10.226;2023-07-31T11:01:00;18.80;99.90
4725;DHT22;2376;53.544;10.226;2023-07-31T11:03:40;18.80;99.90
4725;DHT22;2376;53.544;10.226;2023-07-31T11:06:08;18.80;99.90
4725;DHT22;2376;53.544;10.226;2023-07-31T11:08:41;18.80;99.90
4725;DHT22;2376;53.544;10.226;2023-07-31T11:11:09;18.80;99.90
4725;DHT22;2376;53.544;10.226;2023-07-31T11:13:41;18.80;99.90
4725;DHT22;2376;53.544;10.226;2023-07-31T11:16:08;18.90;99.90
4725;DHT22;2376;53.544;10.226;2023-07-31T11:18:35;18.90;99.90
4725;DHT22;2376;53.544;10.226;2023-07-31T11:21:02;19.00;99.90
4725;DHT22;2376;53.544;10.226;2023-07-31T11:23:30;19.00;99.90
4725;DHT22;2376;53.544;10.226;2023-07-31T11:25:59;19.10;99.90
4725;DHT22;2376;53.544;10.226;2023-07-31T11:28:31;19.00;99.90
4725;DHT22;2376;53.544;10.226;2023-07-31T11:30:59;19.00;99.90
4725;DHT22;2376;53.544;10.226;2023-07-31T11:33:26;19.00;99.90
4725;DHT22;2376;53.544;10.226;2023-07-31T11:35:52;19.10;99.90
4725;DHT22;2376;53.544;10.226;2023-07-31T11:38:23;19.10;99.90
4725;DHT22;2376;53.544;10.226;2023-07-31T11:40:52;19.20;99.90
4725;DHT22;2376;53.544;10.226;2023-07-31T11:43:19;19.30;99.90
4725;DHT22;2376;53.544;10.226;2023-07-31T11:45:47;19.30;99.90
4725;DHT22;2376;53.544;10.226;2023-07-31T11:48:22;19.30;99.90
4725;DHT22;2376;53.544;10.226;2023-07-31T11:50:50;19.30;99.90
4725;DHT22;2376;53.544;10.226;2023-07-31T11:53:21;19.20;99.90
4725;DHT22;2376;53.544;10.226;2023-07-31T11:55:50;19.20;99.90
4725;DHT22;2376;53.544;10.226;2023-07-31T11:58:18;19.20;99.90
4725;DHT22;2376;53.544;10.226;2023-07-31T12:00:45;19.30;99.90
4725;DHT22;2376;53.544;10.226;2023-07-31T12:03:12;19.30;99.90
4725;DHT22;2376;53.544;10.226;2023-07-31T12:05:39;19.30;99.90
4725;DHT22;2376;53.544;10.226;2023-07-31T12:08:09;19.30;99.90
4725;DHT22;2376;53.544;10.226;2023-07-31T12:10:37;19.30;99.90
4725;DHT22;2376;53.544;10.226;2023-07-31T12:13:07;19.30;99.90
4725;DHT22;2376;53.544;10.226;2023-07-31T12:15:37;19.40;99.90
4725;DHT22;2376;53.544;10.226;2023-07-31T12:18:06;19.30;99.90
4725;DHT22;2376;53.544;10.226;2023-07-31T12:20:33;19.30;99.90
4725;DHT22;2376;53.544;10.226;2023-07-31T12:23:00;19.30;99.90
4725;DHT22;2376;53.544;10.226;2023-07-31T12:25:30;19.30;99.90
4725;DHT22;2376;53.544;10.226;2023-07-31T12:27:57;19.30;99.90
4725;DHT22;2376;53.544;10.226;2023-07-31T12:30:31;19.30;99.90
4725;DHT22;2376;53.544;10.226;2023-07-31T12:33:03;19.30;99.90
4725;DHT22;2376;53.544;10.226;2023-07-31T12:35:35;19.30;99.90
4725;DHT22;2376;53.544;10.226;2023-07-31T12:38:02;19.30;99.90
4725;DHT22;2376;53.544;10.226;2023-07-31T12:40:29;19.40;99.90
4725;DHT22;2376;53.544;10.226;2023-07-31T12:42:55;19.40;99.90
4725;DHT22;2376;53.544;10.226;2023-07-31T12:45:22;19.40;99.90
4725;DHT22;2376;53.544;10.226;2023-07-31T12:47:50;19.40;99.90
4725;DHT22;2376;53.544;10.226;2023-07-31T12:50:17;19.40;99.90
4725;DHT22;2376;53.544;10.226;2023-07-31T12:52:43;19.50;99.90
4725;DHT22;2376;53.544;10.226;2023-07-31T12:55:10;19.50;99.90
4725;DHT22;2376;53.544;10.226;2023-07-31T12:57:37;19.50;99.90
4725;DHT22;2376;53.544;10.226;2023-07-31T13:00:04;19.50;99.90
4725;DHT22;2376;53.544;10.226;2023-07-31T13:02:32;19.50;99.90
4725;DHT22;2376;53.544;10.226;2023-07-31T13:05:00;19.60;99.90
4725;DHT22;2376;53.544;10.226;2023-07-31T13:07:26;19.60;99.90
4725;DHT22;2376;53.544;10.226;2023-07-31T13:09:53;19.60;99.90
4725;DHT22;2376;53.544;10.226;2023-07-31T13:12:19;19.60;99.90
4725;DHT22;2376;53.544;10.226;2023-07-31T13:14:46;19.60;99.90
4725;DHT22;2376;53.544;10.226;2023-07-31T13:17:13;19.60;99.90
4725;DHT22;2376;53.544;10.226;2023-07-31T13:19:39;19.60;99.90
4725;DHT22;2376;53.544;10.226;2023-07-31T13:22:08;19.60;99.90
4725;DHT22;2376;53.544;10.226;2023-07-31T13:24:34;19.50;99.90
4725;DHT22;2376;53.544;10.226;2023-07-31T13:27:01;19.50;99.90
4725;DHT22;2376;53.544;10.226;2023-07-31T13:29:27;19.50;99.90
4725;DHT22;2376;53.544;10.226;2023-07-31T13:31:55;19.50;99.90
4725;DHT22;2376;53.544;10.226;2023-07-31T13:34:22;19.50;99.90
4725;DHT22;2376;53.544;10.226;2023-07-31T13:36:48;19.50;99.90
4725;DHT22;2376;53.544;10.226;2023-07-31T13:39:16;19.50;99.90
4725;DHT22;2376;53.544;10.226;2023-07-31T13:41:43;19.50;99.90
4725;DHT22;2376;53.544;10.226;2023-07-31T13:44:09;19.50;99.90
4725;DHT22;2376;53.544;10.226;2023-07-31T13:46:36;19.40;99.90
4725;DHT22;2376;53.544;10.226;2023-07-31T13:49:03;19.40;99.90
4725;DHT22;2376;53.544;10.226;2023-07-31T13:51:29;19.40;99.90
4725;DHT22;2376;53.544;10.226;2023-07-31T13:53:56;19.40;99.90
4725;DHT22;2376;53.544;10.226;2023-07-31T13:56:24;19.50;99.90
4725;DHT22;2376;53.544;10.226;2023-07-31T13:58:51;19.50;99.90
4725;DHT22;2376;53.544;10.226;2023-07-31T14:01:17;19.60;99.90
4725;DHT22;2376;53.544;10.226;2023-07-31T14:03:44;19.60;99.90
4725;DHT22;2376;53.544;10.226;2023-07-31T14:06:10;19.50;99.90
4725;DHT22;2376;53.544;10.226;2023-07-31T14:08:37;19.50;99.90
4725;DHT22;2376;53.544;10.226;2023-07-31T14:11:04;19.60;99.90
4725;DHT22;2376;53.544;10.226;2023-07-31T14:13:32;19.60;99.90
4725;DHT22;2376;53.544;10.226;2023-07-31T14:15:58;19.60;99.90
4725;DHT22;2376;53.544;10.226;2023-07-31T14:18:25;19.60;99.90
4725;DHT22;2376;53.544;10.226;2023-07-31T14:20:51;19.60;99.90
4725;DHT22;2376;53.544;10.226;2023-07-31T14:23:18;19.70;99.90
4725;DHT22;2376;53.544;10.226;2023-07-31T14:25:45;19.70;99.90
4725;DHT22;2376;53.544;10.226;2023-07-31T14:28:12;19.70;99.90
4725;DHT22;2376;53.544;10.226;2023-07-31T14:30:40;19.70;99.90
4725;DHT22;2376;53.544;10.226;2023-07-31T14:33:06;19.60;99.90
4725;DHT22;2376;53.544;10.226;2023-07-31T14:35:33;19.60;99.90
4725;DHT22;2376;53.544;10.226;2023-07-31T14:38:01;19.60;99.90
4725;DHT22;2376;53.544;10.226;2023-07-31T14:40:27;19.50;99.90
4725;DHT22;2376;53.544;10.226;2023-07-31T14:42:54;19.60;99.90
4725;DHT22;2376;53.544;10.226;2023-07-31T14:45:21;19.50;99.90
4725;DHT22;2376;53.544;10.226;2023-07-31T14:47:49;19.50;99.90
4725;DHT22;2376;53.544;10.226;2023-07-31T14:50:16;19.50;99.90
4725;DHT22;2376;53.544;10.226;2023-07-31T14:52:42;19.50;99.90
4725;DHT22;2376;53.544;10.226;2023-07-31T14:55:09;19.40;99.90
4725;DHT22;2376;53.544;10.226;2023-07-31T14:57:36;19.40;99.90
4725;DHT22;2376;53.544;10.226;2023-07-31T15:00:03;19.40;99.90
4725;DHT22;2376;53.544;10.226;2023-07-31T15:02:33;19.30;99.90
4725;DHT22;2376;53.544;10.226;2023-07-31T15:05:01;19.30;99.90
4725;DHT22;2376;53.544;10.226;2023-07-31T15:07:28;19.30;99.90
4725;DHT22;2376;53.544;10.226;2023-07-31T15:09:55;19.30;99.90
4725;DHT22;2376;53.544;10.226;2023-07-31T15:12:22;19.30;99.90
4725;DHT22;2376;53.544;10.226;2023-07-31T15:14:49;19.20;99.90
4725;DHT22;2376;53.544;10.226;2023-07-31T15:17:16;19.30;99.90
4725;DHT22;2376;53.544;10.226;2023-07-31T15:19:42;19.30;99.90
4725;DHT22;2376;53.544;10.226;2023-07-31T15:22:10;19.20;99.90
4725;DHT22;2376;53.544;10.226;2023-07-31T15:24:37;19.20;99.90
4725;DHT22;2376;53.544;10.226;2023-07-31T15:27:04;19.20;99.90
4725;DHT22;2376;53.544;10.226;2023-07-31T15:29:31;19.10;99.90
4725;DHT22;2376;53.544;10.226;2023-07-31T15:32:00;19.10;99.90
4725;DHT22;2376;53.544;10.226;2023-07-31T15:34:26;19.10;99.90
4725;DHT22;2376;53.544;10.226;2023-07-31T15:36:53;19.10;99.90
4725;DHT22;2376;53.544;10.226;2023-07-31T15:39:21;19.10;99.90
4725;DHT22;2376;53.544;10.226;2023-07-31T15:41:47;19.10;99.90
4725;DHT22;2376;53.544;10.226;2023-07-31T15:44:14;19.10;99.90
4725;DHT22;2376;53.544;10.226;2023-07-31T15:46:41;19.10;99.90